sensor_id;sensor_type;location;lat;lon;timestamp;temperature;humidity
4356;DHT22;64374;51.482;7.408;2024-01-30T00:00:11;14.30;99.90
4356;DHT22;64374;51.482;7.408;2024-01-30T00:02:39;14.10;99.90
4356;DHT22;64374;51.482;7.408;2024-01-30T00:05:07;14.30;99.90
4356;DHT22;64374;51.482;7.408;2024-01-30T00:07:35;14.50;99.90
4356;DHT22;64374;51.482;7.408;2024-01-30T00:10:04;14.10;99.90
4356;DHT22;64374;51.482;7.408;2024-01-30T00:12:34;14.20;99.90
4356;DHT22;64374;51.482;7.408;2024-01-30T00:15:03;14.30;99.90
4356;DHT22;64374;51.482;7.408;2024-01-30T00:17:35;14.50;99.90
4356;DHT22;64374;51.482;7.408;2024-01-30T00:20:06;14.60;99.90
4356;DHT22;64374;51.482;7.408;2024-01-30T00:22:36;14.70;99.90
4356;DHT22;64374;51.482;7.408;2024-01-30T00:25:04;14.70;99.90
4356;DHT22;64374;51.482;7.408;2024-01-30T00:27:34;14.70;99.90
4356;DHT22;64374;51.482;7.408;2024-01-30T00:30:03;14.70;99.90
4356;DHT22;64374;51.482;7.408;2024-01-30T00:32:31;14.40;99.90
4356;DHT22;64374;51.482;7.408;2024-01-30T00:35:00;14.40;99.90
4356;DHT22;64374;51.482;7.408;2024-01-30T00:37:28;14.30;99.90
4356;DHT22;64374;51.482;7.408;2024-01-30T00:39:59;14.00;99.90
4356;DHT22;64374;51.482;7.408;2024-01-30T00:42:28;13.60;99.90
4356;DHT22;64374;51.482;7.408;2024-01-30T00:44:57;13.70;99.90
4356;DHT22;64374;51.482;7.408;2024-01-30T00:47:25;13.40;99.90
4356;DHT22;64374;51.482;7.408;2024-01-30T00:49:56;13.40;99.90
4356;DHT22;64374;51.482;7.408;2024-01-30T00:52:24;13.60;99.90
4356;DHT22;64374;51.482;7.408;2024-01-30T00:54:54;13.60;99.90
4356;DHT22;64374;51.482;7.408;2024-01-30T00:57:24;13.20;99.90
4356;DHT22;64374;51.482;7.408;2024-01-30T00:59:53;12.80;99.90
4356;DHT22;64374;51.482;7.408;2024-01-30T01:02:28;12.90;99.90
4356;DHT22;64374;51.482;7.408;2024-01-30T01:04:56;12.80;99.90
4356;DHT22;64374;51.482;7.408;2024-01-30T01:07:24;12.70;99.90
4356;DHT22;64374;51.482;7.408;2024-01-30T01:09:55;13.00;99.90
4356;DHT22;64374;51.482;7.408;2024-01-30T01:12:23;13.10;99.90
4356;DHT22;64374;51.482;7.408;2024-01-30T01:14:51;13.10;99.90
4356;DHT22;64374;51.482;7.408;2024-01-30T01:17:21;13.20;99.90
4356;DHT22;64374;51.482;7.408;2024-01-30T01:19:51;13.00;99.90
4356;DHT22;64374;51.482;7.408;2024-01-30T01:22:19;12.60;99.90
4356;DHT22;64374;51.482;7.408;2024-01-30T01:24:47;12.60;99.90
4356;DHT22;64374;51.482;7.408;2024-01-30T01:27:16;12.90;99.90
4356;DHT22;64374;51.482;7.408;2024-01-30T01:29:47;13.10;99.90
4356;DHT22;64374;51.482;7.408;2024-01-30T01:32:15;13.20;99.90
4356;DHT22;64374;51.482;7.408;2024-01-30T01:34:44;13.10;99.90
4356;DHT22;64374;51.482;7.408;2024-01-30T01:37:13;13.10;99.90
4356;DHT22;64374;51.482;7.408;2024-01-30T01:39:42;13.20;99.90
4356;DHT22;64374;51.482;7.408;2024-01-30T01:42:10;13.50;99.90
4356;DHT22;64374;51.482;7.408;2024-01-30T01:44:38;13.50;99.90
4356;DHT22;64374;51.482;7.408;2024-01-30T01:47:06;13.30;99.90
4356;DHT22;64374;51.482;7.408;2024-01-30T01:49:35;12.30;99.90
4356;DHT22;64374;51.482;7.408;2024-01-30T01:52:03;12.40;99.90
4356;DHT22;64374;51.482;7.408;2024-01-30T01:54:33;12.50;99.90
4356;DHT22;64374;51.482;7.408;2024-01-30T01:57:01;12.50;99.90
4356;DHT22;64374;51.482;7.408;2024-01-30T01:59:29;12.20;99.90
4356;DHT22;64374;51.482;7.408;2024-01-30T02:01:58;12.30;99.90
4356;DHT22;64374;51.482;7.408;2024-01-30T02:04:29;12.40;99.90
4356;DHT22;64374;51.482;7.408;2024-01-30T02:07:05;12.40;99.90
4356;DHT22;64374;51.482;7.408;2024-01-30T02:09:34;12.60;99.90
4356;DHT22;64374;51.482;7.408;2024-01-30T02:12:03;12.70;99.90
4356;DHT22;64374;51.482;7.408;2024-01-30T02:14:31;12.50;99.90
4356;DHT22;64374;51.482;7.408;2024-01-30T02:16:59;12.80;99.90
4356;DHT22;64374;51.482;7.408;2024-01-30T02:19:27;13.20;99.90
4356;DHT22;64374;51.482;7.408;2024-01-30T02:21:57;13.70;99.90
4356;DHT22;64374;51.482;7.408;2024-01-30T02:24:25;13.70;99.90
4356;DHT22;64374;51.482;7.408;2024-01-30T02:26:53;13.70;99.90
4356;DHT22;64374;51.482;7.408;2024-01-30T02:29:22;13.60;99.90
4356;DHT22;64374;51.482;7.408;2024-01-30T02:31:50;13.50;99.90
4356;DHT22;64374;51.482;7.408;2024-01-30T02:34:25;13.40;99.90
4356;DHT22;64374;51.482;7.408;2024-01-30T02:36:53;13.60;99.90
4356;DHT22;64374;51.482;7.408;2024-01-30T02:39:25;13.80;99.90
4356;DHT22;64374;51.482;7.408;2024-01-30T02:41:55;14.30;99.90
4356;DHT22;64374;51.482;7.408;2024-01-30T02:44:26;14.30;99.90
4356;DHT22;64374;51.482;7.408;2024-01-30T02:46:54;14.40;99.90
4356;DHT22;64374;51.482;7.408;2024-01-30T02:49:23;14.30;99.90
4356;DHT22;64374;51.482;7.408;2024-01-30T02:51:52;14.50;99.90
4356;DHT22;64374;51.482;7.408;2024-01-30T02:54:22;14.40;99.90
4356;DHT22;64374;51.482;7.408;2024-01-30T02:56:50;13.90;99.90
4356;DHT22;64374;51.482;7.408;2024-01-30T02:59:22;14.00;99.90
4356;DHT22;64374;51.482;7.408;2024-01-30T03:01:50;14.10;99.90
4356;DHT22;64374;51.482;7.408;2024-01-30T03:04:18;14.20;99.90
4356;DHT22;64374;51.482;7.408;2024-01-30T03:06:47;14.20;99.90
4356;DHT22;64374;51.482;7.408;2024-01-30T03:09:19;14.00;99.90
4356;DHT22;64374;51.482;7.408;2024-01-30T03:11:49;13.90;99.90
4356;DHT22;64374;51.482;7.408;2024-01-30T03:14:19;14.00;99.90
4356;DHT22;64374;51.482;7.408;2024-01-30T03:16:51;13.70;99.90
4356;DHT22;64374;51.482;7.408;2024-01-30T03:19:19;13.50;99.90
4356;DHT22;64374;51.482;7.408;2024-01-30T03:21:55;13.10;99.90
4356;DHT22;64374;51.482;7.408;2024-01-30T03:24:27;13.00;99.90
4356;DHT22;64374;51.482;7.408;2024-01-30T03:26:56;12.80;99.90
4356;DHT22;64374;51.482;7.408;2024-01-30T03:29:28;13.00;99.90
4356;DHT22;64374;51.482;7.408;2024-01-30T03:31:56;12.50;99.90
4356;DHT22;64374;51.482;7.408;2024-01-30T03:34:24;12.90;99.90
4356;DHT22;64374;51.482;7.408;2024-01-30T03:36:52;12.90;99.90
4356;DHT22;64374;51.482;7.408;2024-01-30T03:39:24;12.80;99.90
4356;DHT22;64374;51.482;7.408;2024-01-30T03:41:56;13.00;99.90
4356;DHT22;64374;51.482;7.408;2024-01-30T03:44:28;13.10;99.90
4356;DHT22;64374;51.482;7.408;2024-01-30T03:46:59;13.00;99.90
4356;DHT22;64374;51.482;7.408;2024-01-30T03:49:27;13.10;99.90
4356;DHT22;64374;51.482;7.408;2024-01-30T03:51:56;12.90;99.90
4356;DHT22;64374;51.482;7.408;2024-01-30T03:54:24;13.00;99.90
4356;DHT22;64374;51.482;7.408;2024-01-30T03:56:56;13.00;99.90
4356;DHT22;64374;51.482;7.408;2024-01-30T03:59:26;12.80;99.90
4356;DHT22;64374;51.482;7.408;2024-01-30T04:01:54;13.00;99.90
4356;DHT22;64374;51.482;7.408;2024-01-30T04:04:26;13.00;99.90
4356;DHT22;64374;51.482;7.408;2024-01-30T04:06:54;13.10;99.90
4356;DHT22;64374;51.482;7.408;2024-01-30T04:09:22;13.40;99.90
4356;DHT22;64374;51.482;7.408;2024-01-30T04:11:51;13.30;99.90
4356;DHT22;64374;51.482;7.408;2024-01-30T04:14:21;13.40;99.90
4356;DHT22;64374;51.482;7.408;2024-01-30T04:16:49;13.80;99.90
4356;DHT22;64374;51.482;7.408;2024-01-30T04:19:20;14.00;99.90
4356;DHT22;64374;51.482;7.408;2024-01-30T04:21:48;14.20;99.90
4356;DHT22;64374;51.482;7.408;2024-01-30T04:24:16;14.10;99.90
4356;DHT22;64374;51.482;7.408;2024-01-30T04:26:46;13.80;99.90
4356;DHT22;64374;51.482;7.408;2024-01-30T04:29:14;14.00;99.90
4356;DHT22;64374;51.482;7.408;2024-01-30T04:31:46;14.00;99.90
4356;DHT22;64374;51.482;7.408;2024-01-30T04:34:14;14.10;99.90
4356;DHT22;64374;51.482;7.408;2024-01-30T04:36:44;14.20;99.90
4356;DHT22;64374;51.482;7.408;2024-01-30T04:39:13;14.10;99.90
4356;DHT22;64374;51.482;7.408;2024-01-30T04:41:41;13.60;99.90
4356;DHT22;64374;51.482;7.408;2024-01-30T04:44:09;13.60;99.90
4356;DHT22;64374;51.482;7.408;2024-01-30T04:46:37;13.70;99.90
4356;DHT22;64374;51.482;7.408;2024-01-30T04:49:06;13.90;99.90
4356;DHT22;64374;51.482;7.408;2024-01-30T04:51:35;13.90;99.90
4356;DHT22;64374;51.482;7.408;2024-01-30T04:54:04;13.80;99.90
4356;DHT22;64374;51.482;7.408;2024-01-30T04:56:32;13.60;99.90
4356;DHT22;64374;51.482;7.408;2024-01-30T04:59:00;13.40;99.90
4356;DHT22;64374;51.482;7.408;2024-01-30T05:01:29;13.50;99.90
4356;DHT22;64374;51.482;7.408;2024-01-30T05:03:57;13.40;99.90
4356;DHT22;64374;51.482;7.408;2024-01-30T05:06:29;13.60;99.90
4356;DHT22;64374;51.482;7.408;2024-01-30T05:08:58;13.30;99.90
4356;DHT22;64374;51.482;7.408;2024-01-30T05:11:28;13.00;99.90
4356;DHT22;64374;51.482;7.408;2024-01-30T05:13:56;13.40;99.90
4356;DHT22;64374;51.482;7.408;2024-01-30T05:16:27;13.50;99.90
4356;DHT22;64374;51.482;7.408;2024-01-30T05:18:55;13.20;99.90
4356;DHT22;64374;51.482;7.408;2024-01-30T05:21:28;13.30;99.90
4356;DHT22;64374;51.482;7.408;2024-01-30T05:23:56;12.90;99.90
4356;DHT22;64374;51.482;7.408;2024-01-30T05:26:26;13.10;99.90
4356;DHT22;64374;51.482;7.408;2024-01-30T05:29:01;13.10;99.90
4356;DHT22;64374;51.482;7.408;2024-01-30T05:31:30;13.30;99.90
4356;DHT22;64374;51.482;7.408;2024-01-30T05:33:58;13.50;99.90
4356;DHT22;64374;51.482;7.408;2024-01-30T05:36:26;13.30;99.90
4356;DHT22;64374;51.482;7.408;2024-01-30T05:38:57;13.50;99.90
4356;DHT22;64374;51.482;7.408;2024-01-30T05:41:25;13.50;99.90
4356;DHT22;64374;51.482;7.408;2024-01-30T05:44:01;13.30;99.90
4356;DHT22;64374;51.482;7.408;2024-01-30T05:46:31;13.50;99.90
4356;DHT22;64374;51.482;7.408;2024-01-30T05:48:59;13.60;99.90
4356;DHT22;64374;51.482;7.408;2024-01-30T05:51:30;13.80;99.90
4356;DHT22;64374;51.482;7.408;2024-01-30T05:56:48;13.60;99.90
4356;DHT22;64374;51.482;7.408;2024-01-30T05:59:16;13.40;99.90
4356;DHT22;64374;51.482;7.408;2024-01-30T06:01:50;13.70;99.90
4356;DHT22;64374;51.482;7.408;2024-01-30T06:04:22;13.90;99.90
4356;DHT22;64374;51.482;7.408;2024-01-30T06:06:50;14.10;99.90
4356;DHT22;64374;51.482;7.408;2024-01-30T06:09:19;14.20;99.90
4356;DHT22;64374;51.482;7.408;2024-01-30T06:11:48;14.00;99.90
4356;DHT22;64374;51.482;7.408;2024-01-30T06:14:16;13.60;99.90
4356;DHT22;64374;51.482;7.408;2024-01-30T06:16:45;13.60;99.90
4356;DHT22;64374;51.482;7.408;2024-01-30T06:19:13;13.50;99.90
4356;DHT22;64374;51.482;7.408;2024-01-30T06:21:41;13.50;99.90
4356;DHT22;64374;51.482;7.408;2024-01-30T06:24:09;12.80;99.90
4356;DHT22;64374;51.482;7.408;2024-01-30T06:26:38;13.00;99.90
4356;DHT22;64374;51.482;7.408;2024-01-30T06:29:09;12.80;99.90
4356;DHT22;64374;51.482;7.408;2024-01-30T06:31:40;13.10;99.90
4356;DHT22;64374;51.482;7.408;2024-01-30T06:34:11;12.90;99.90
4356;DHT22;64374;51.482;7.408;2024-01-30T06:36:42;13.10;99.90
4356;DHT22;64374;51.482;7.408;2024-01-30T06:39:10;13.00;99.90
4356;DHT22;64374;51.482;7.408;2024-01-30T06:41:39;13.20;99.90
4356;DHT22;64374;51.482;7.408;2024-01-30T06:44:07;13.50;99.90
4356;DHT22;64374;51.482;7.408;2024-01-30T06:46:41;13.80;99.90
4356;DHT22;64374;51.482;7.408;2024-01-30T06:49:11;14.00;99.90
4356;DHT22;64374;51.482;7.408;2024-01-30T06:51:42;14.20;99.90
4356;DHT22;64374;51.482;7.408;2024-01-30T06:54:13;14.30;99.90
4356;DHT22;64374;51.482;7.408;2024-01-30T06:56:41;13.80;99.90
4356;DHT22;64374;51.482;7.408;2024-01-30T06:59:09;14.00;99.90
4356;DHT22;64374;51.482;7.408;2024-01-30T07:01:39;14.20;99.90
4356;DHT22;64374;51.482;7.408;2024-01-30T07:04:07;14.30;99.90
4356;DHT22;64374;51.482;7.408;2024-01-30T07:06:36;14.40;99.90
4356;DHT22;64374;51.482;7.408;2024-01-30T07:09:05;14.50;99.90
4356;DHT22;64374;51.482;7.408;2024-01-30T07:11:40;14.50;99.90
4356;DHT22;64374;51.482;7.408;2024-01-30T07:14:09;14.70;99.90
4356;DHT22;64374;51.482;7.408;2024-01-30T07:16:39;14.70;99.90
4356;DHT22;64374;51.482;7.408;2024-01-30T07:19:07;14.80;99.90
4356;DHT22;64374;51.482;7.408;2024-01-30T07:21:39;14.90;99.90
4356;DHT22;64374;51.482;7.408;2024-01-30T07:24:15;14.80;99.90
4356;DHT22;64374;51.482;7.408;2024-01-30T07:26:43;14.80;99.90
4356;DHT22;64374;51.482;7.408;2024-01-30T07:29:11;14.90;99.90
4356;DHT22;64374;51.482;7.408;2024-01-30T07:31:50;14.30;99.90
4356;DHT22;64374;51.482;7.408;2024-01-30T07:34:19;14.50;99.90
4356;DHT22;64374;51.482;7.408;2024-01-30T07:36:48;14.50;99.90
4356;DHT22;64374;51.482;7.408;2024-01-30T07:39:18;14.40;99.90
4356;DHT22;64374;51.482;7.408;2024-01-30T07:41:49;13.90;99.90
4356;DHT22;64374;51.482;7.408;2024-01-30T07:44:17;13.70;99.90
4356;DHT22;64374;51.482;7.408;2024-01-30T07:46:51;13.70;99.90
4356;DHT22;64374;51.482;7.408;2024-01-30T07:49:27;13.30;99.90
4356;DHT22;64374;51.482;7.408;2024-01-30T07:51:55;13.10;99.90
4356;DHT22;64374;51.482;7.408;2024-01-30T07:54:24;13.30;99.90
4356;DHT22;64374;51.482;7.408;2024-01-30T08:03:57;12.60;99.90
4356;DHT22;64374;51.482;7.408;2024-01-30T08:06:28;12.10;99.90
4356;DHT22;64374;51.482;7.408;2024-01-30T08:08:59;12.30;99.90
4356;DHT22;64374;51.482;7.408;2024-01-30T08:11:27;12.50;99.90
4356;DHT22;64374;51.482;7.408;2024-01-30T08:13:56;12.40;99.90
4356;DHT22;64374;51.482;7.408;2024-01-30T08:16:31;12.40;99.90
4356;DHT22;64374;51.482;7.408;2024-01-30T08:19:14;12.50;99.90
4356;DHT22;64374;51.482;7.408;2024-01-30T08:21:43;12.30;99.90
4356;DHT22;64374;51.482;7.408;2024-01-30T08:24:13;12.60;99.90
4356;DHT22;64374;51.482;7.408;2024-01-30T08:26:41;13.20;99.90
4356;DHT22;64374;51.482;7.408;2024-01-30T08:29:12;13.30;99.90
4356;DHT22;64374;51.482;7.408;2024-01-30T08:31:40;12.80;99.90
4356;DHT22;64374;51.482;7.408;2024-01-30T08:34:12;12.40;99.90
4356;DHT22;64374;51.482;7.408;2024-01-30T08:36:42;12.90;99.90
4356;DHT22;64374;51.482;7.408;2024-01-30T08:39:13;13.10;99.90
4356;DHT22;64374;51.482;7.408;2024-01-30T08:41:43;13.10;99.90
4356;DHT22;64374;51.482;7.408;2024-01-30T08:44:12;12.70;99.90
4356;DHT22;64374;51.482;7.408;2024-01-30T08:46:42;12.60;99.90
4356;DHT22;64374;51.482;7.408;2024-01-30T08:49:11;12.40;99.90
4356;DHT22;64374;51.482;7.408;2024-01-30T08:51:40;12.40;99.90
4356;DHT22;64374;51.482;7.408;2024-01-30T08:54:09;12.30;99.90
4356;DHT22;64374;51.482;7.408;2024-01-30T08:56:37;12.60;99.90
4356;DHT22;64374;51.482;7.408;2024-01-30T08:59:12;13.20;99.90
4356;DHT22;64374;51.482;7.408;2024-01-30T09:01:40;13.30;99.90
4356;DHT22;64374;51.482;7.408;2024-01-30T09:04:27;13.10;99.90
4356;DHT22;64374;51.482;7.408;2024-01-30T09:06:55;12.70;99.90
4356;DHT22;64374;51.482;7.408;2024-01-30T09:09:23;13.10;99.90
4356;DHT22;64374;51.482;7.408;2024-01-30T09:11:51;13.10;99.90
4356;DHT22;64374;51.482;7.408;2024-01-30T09:14:19;13.00;99.90
4356;DHT22;64374;51.482;7.408;2024-01-30T09:16:47;13.00;99.90
4356;DHT22;64374;51.482;7.408;2024-01-30T09:19:16;13.20;99.90
4356;DHT22;64374;51.482;7.408;2024-01-30T09:21:46;13.30;99.90
4356;DHT22;64374;51.482;7.408;2024-01-30T09:24:19;13.10;99.90
4356;DHT22;64374;51.482;7.408;2024-01-30T09:26:47;13.10;99.90
4356;DHT22;64374;51.482;7.408;2024-01-30T09:29:16;12.70;99.90
4356;DHT22;64374;51.482;7.408;2024-01-30T09:31:45;12.60;99.90
4356;DHT22;64374;51.482;7.408;2024-01-30T09:34:15;13.10;99.90
4356;DHT22;64374;51.482;7.408;2024-01-30T09:36:43;12.90;99.90
4356;DHT22;64374;51.482;7.408;2024-01-30T09:39:13;12.80;99.90
4356;DHT22;64374;51.482;7.408;2024-01-30T09:41:49;12.50;99.90
4356;DHT22;64374;51.482;7.408;2024-01-30T09:44:18;12.50;99.90
4356;DHT22;64374;51.482;7.408;2024-01-30T09:46:48;12.70;99.90
4356;DHT22;64374;51.482;7.408;2024-01-30T09:49:17;12.20;99.90
4356;DHT22;64374;51.482;7.408;2024-01-30T09:51:48;12.20;99.90
4356;DHT22;64374;51.482;7.408;2024-01-30T09:54:19;12.30;99.90
4356;DHT22;64374;51.482;7.408;2024-01-30T09:56:48;12.60;99.90
4356;DHT22;64374;51.482;7.408;2024-01-30T09:59:16;12.40;99.90
4356;DHT22;64374;51.482;7.408;2024-01-30T10:01:47;12.60;99.90
4356;DHT22;64374;51.482;7.408;2024-01-30T10:04:16;13.00;99.90
4356;DHT22;64374;51.482;7.408;2024-01-30T10:06:44;13.10;99.90
4356;DHT22;64374;51.482;7.408;2024-01-30T10:09:15;13.20;99.90
4356;DHT22;64374;51.482;7.408;2024-01-30T10:11:44;13.00;99.90
4356;DHT22;64374;51.482;7.408;2024-01-30T10:14:13;13.20;99.90
4356;DHT22;64374;51.482;7.408;2024-01-30T10:16:41;13.70;99.90
4356;DHT22;64374;51.482;7.408;2024-01-30T10:19:13;13.50;99.90
4356;DHT22;64374;51.482;7.408;2024-01-30T10:21:41;13.50;99.90
4356;DHT22;64374;51.482;7.408;2024-01-30T10:24:10;13.70;99.90
4356;DHT22;64374;51.482;7.408;2024-01-30T10:26:39;13.30;99.90
4356;DHT22;64374;51.482;7.408;2024-01-30T10:29:09;13.40;99.90
4356;DHT22;64374;51.482;7.408;2024-01-30T10:31:37;13.60;99.90
4356;DHT22;64374;51.482;7.408;2024-01-30T10:34:06;13.80;99.90
4356;DHT22;64374;51.482;7.408;2024-01-30T10:36:50;13.70;99.90
4356;DHT22;64374;51.482;7.408;2024-01-30T10:39:22;13.80;99.90
4356;DHT22;64374;51.482;7.408;2024-01-30T10:42:07;13.60;99.90
4356;DHT22;64374;51.482;7.408;2024-01-30T10:44:55;14.00;99.90
4356;DHT22;64374;51.482;7.408;2024-01-30T10:47:34;13.90;99.90
4356;DHT22;64374;51.482;7.408;2024-01-30T10:50:04;13.70;99.90
4356;DHT22;64374;51.482;7.408;2024-01-30T10:52:41;14.00;99.90
4356;DHT22;64374;51.482;7.408;2024-01-30T10:55:11;13.60;99.90
4356;DHT22;64374;51.482;7.408;2024-01-30T10:57:41;13.30;99.90
4356;DHT22;64374;51.482;7.408;2024-01-30T11:00:14;13.20;99.90
4356;DHT22;64374;51.482;7.408;2024-01-30T11:02:45;13.50;99.90
4356;DHT22;64374;51.482;7.408;2024-01-30T11:05:13;13.40;99.90
4356;DHT22;64374;51.482;7.408;2024-01-30T11:07:42;13.80;99.90
4356;DHT22;64374;51.482;7.408;2024-01-30T11:10:13;14.10;99.90
4356;DHT22;64374;51.482;7.408;2024-01-30T11:12:43;13.90;99.90
4356;DHT22;64374;51.482;7.408;2024-01-30T11:15:16;14.30;99.90
4356;DHT22;64374;51.482;7.408;2024-01-30T11:17:47;14.50;99.90
4356;DHT22;64374;51.482;7.408;2024-01-30T11:20:20;14.70;99.90
4356;DHT22;64374;51.482;7.408;2024-01-30T11:22:50;15.40;99.90
4356;DHT22;64374;51.482;7.408;2024-01-30T11:25:22;16.30;99.90
4356;DHT22;64374;51.482;7.408;2024-01-30T11:27:55;16.90;99.90
4356;DHT22;64374;51.482;7.408;2024-01-30T11:30:26;16.60;99.90
4356;DHT22;64374;51.482;7.408;2024-01-30T11:33:02;17.00;99.90
4356;DHT22;64374;51.482;7.408;2024-01-30T11:35:34;16.90;99.90
4356;DHT22;64374;51.482;7.408;2024-01-30T11:38:05;16.90;99.90
4356;DHT22;64374;51.482;7.408;2024-01-30T11:40:34;15.70;99.90
4356;DHT22;64374;51.482;7.408;2024-01-30T11:43:04;15.20;99.90
4356;DHT22;64374;51.482;7.408;2024-01-30T11:45:36;15.20;99.90
4356;DHT22;64374;51.482;7.408;2024-01-30T11:48:07;15.10;99.90
4356;DHT22;64374;51.482;7.408;2024-01-30T11:50:39;14.60;99.90
4356;DHT22;64374;51.482;7.408;2024-01-30T11:53:08;14.30;99.90
4356;DHT22;64374;51.482;7.408;2024-01-30T11:55:36;14.10;99.90
4356;DHT22;64374;51.482;7.408;2024-01-30T11:58:07;13.90;99.90
4356;DHT22;64374;51.482;7.408;2024-01-30T12:00:37;13.80;99.90
4356;DHT22;64374;51.482;7.408;2024-01-30T12:03:09;13.90;99.90
4356;DHT22;64374;51.482;7.408;2024-01-30T12:05:39;13.60;99.90
4356;DHT22;64374;51.482;7.408;2024-01-30T12:08:15;13.50;99.90
4356;DHT22;64374;51.482;7.408;2024-01-30T12:10:43;13.50;99.90
4356;DHT22;64374;51.482;7.408;2024-01-30T12:13:14;13.60;99.90
4356;DHT22;64374;51.482;7.408;2024-01-30T12:15:44;13.70;99.90
4356;DHT22;64374;51.482;7.408;2024-01-30T12:18:22;13.80;99.90
4356;DHT22;64374;51.482;7.408;2024-01-30T12:20:57;13.60;99.90
4356;DHT22;64374;51.482;7.408;2024-01-30T12:23:27;13.50;99.90
4356;DHT22;64374;51.482;7.408;2024-01-30T12:25:58;13.60;99.90
4356;DHT22;64374;51.482;7.408;2024-01-30T12:28:28;13.60;99.90
4356;DHT22;64374;51.482;7.408;2024-01-30T12:31:01;13.40;99.90
4356;DHT22;64374;51.482;7.408;2024-01-30T12:33:30;13.50;99.90
4356;DHT22;64374;51.482;7.408;2024-01-30T12:36:01;13.50;99.90
4356;DHT22;64374;51.482;7.408;2024-01-30T12:38:30;13.40;99.90
4356;DHT22;64374;51.482;7.408;2024-01-30T12:40:59;13.60;99.90
4356;DHT22;64374;51.482;7.408;2024-01-30T12:43:27;13.30;99.90
4356;DHT22;64374;51.482;7.408;2024-01-30T12:46:06;13.20;99.90
4356;DHT22;64374;51.482;7.408;2024-01-30T12:48:38;13.50;99.90
4356;DHT22;64374;51.482;7.408;2024-01-30T12:51:17;13.80;99.90
4356;DHT22;64374;51.482;7.408;2024-01-30T12:53:45;13.50;99.90
4356;DHT22;64374;51.482;7.408;2024-01-30T12:56:15;13.30;99.90
4356;DHT22;64374;51.482;7.408;2024-01-30T12:58:46;13.00;99.90
4356;DHT22;64374;51.482;7.408;2024-01-30T13:01:20;13.20;99.90
4356;DHT22;64374;51.482;7.408;2024-01-30T13:03:49;13.30;99.90
4356;DHT22;64374;51.482;7.408;2024-01-30T13:06:26;13.60;99.90
4356;DHT22;64374;51.482;7.408;2024-01-30T13:08:54;13.90;99.90
4356;DHT22;64374;51.482;7.408;2024-01-30T13:11:22;13.80;99.90
4356;DHT22;64374;51.482;7.408;2024-01-30T13:13:52;13.70;99.90
4356;DHT22;64374;51.482;7.408;2024-01-30T13:16:21;13.60;99.90
4356;DHT22;64374;51.482;7.408;2024-01-30T13:18:50;13.30;99.90
4356;DHT22;64374;51.482;7.408;2024-01-30T13:21:18;13.20;99.90
4356;DHT22;64374;51.482;7.408;2024-01-30T13:23:54;13.30;99.90
4356;DHT22;64374;51.482;7.408;2024-01-30T13:26:24;13.50;99.90
4356;DHT22;64374;51.482;7.408;2024-01-30T13:28:52;13.20;99.90
4356;DHT22;64374;51.482;7.408;2024-01-30T13:31:23;13.00;99.90
4356;DHT22;64374;51.482;7.408;2024-01-30T13:33:52;13.10;99.90
4356;DHT22;64374;51.482;7.408;2024-01-30T13:36:20;13.30;99.90
4356;DHT22;64374;51.482;7.408;2024-01-30T13:38:49;13.10;99.90
4356;DHT22;64374;51.482;7.408;2024-01-30T13:41:17;13.30;99.90
4356;DHT22;64374;51.482;7.408;2024-01-30T13:43:47;13.30;99.90
4356;DHT22;64374;51.482;7.408;2024-01-30T13:46:15;13.00;99.90
4356;DHT22;64374;51.482;7.408;2024-01-30T13:48:50;13.00;99.90
4356;DHT22;64374;51.482;7.408;2024-01-30T13:51:18;13.10;99.90
4356;DHT22;64374;51.482;7.408;2024-01-30T13:53:46;13.20;99.90
4356;DHT22;64374;51.482;7.408;2024-01-30T13:56:16;13.10;99.90
4356;DHT22;64374;51.482;7.408;2024-01-30T13:58:49;12.80;99.90
4356;DHT22;64374;51.482;7.408;2024-01-30T14:01:20;12.70;99.90
4356;DHT22;64374;51.482;7.408;2024-01-30T14:03:53;12.70;99.90
4356;DHT22;64374;51.482;7.408;2024-01-30T14:06:24;13.10;99.90
4356;DHT22;64374;51.482;7.408;2024-01-30T14:08:52;13.00;99.90
4356;DHT22;64374;51.482;7.408;2024-01-30T14:11:37;12.80;99.90
4356;DHT22;64374;51.482;7.408;2024-01-30T14:14:05;12.90;99.90
4356;DHT22;64374;51.482;7.408;2024-01-30T14:16:33;13.10;99.90
4356;DHT22;64374;51.482;7.408;2024-01-30T14:19:03;12.90;99.90
4356;DHT22;64374;51.482;7.408;2024-01-30T14:21:31;12.70;99.90
4356;DHT22;64374;51.482;7.408;2024-01-30T14:24:00;12.90;99.90
4356;DHT22;64374;51.482;7.408;2024-01-30T14:26:28;12.90;99.90
4356;DHT22;64374;51.482;7.408;2024-01-30T14:28:56;13.10;99.90
4356;DHT22;64374;51.482;7.408;2024-01-30T14:31:26;13.00;99.90
4356;DHT22;64374;51.482;7.408;2024-01-30T14:33:57;12.80;99.90
4356;DHT22;64374;51.482;7.408;2024-01-30T14:36:27;12.90;99.90
4356;DHT22;64374;51.482;7.408;2024-01-30T14:38:58;13.00;99.90
4356;DHT22;64374;51.482;7.408;2024-01-30T14:41:26;13.00;99.90
4356;DHT22;64374;51.482;7.408;2024-01-30T14:43:55;13.50;99.90
4356;DHT22;64374;51.482;7.408;2024-01-30T14:46:23;13.50;99.90
4356;DHT22;64374;51.482;7.408;2024-01-30T14:48:53;13.80;99.90
4356;DHT22;64374;51.482;7.408;2024-01-30T14:51:29;13.10;99.90
4356;DHT22;64374;51.482;7.408;2024-01-30T14:53:57;12.90;99.90
4356;DHT22;64374;51.482;7.408;2024-01-30T14:56:25;13.00;99.90
4356;DHT22;64374;51.482;7.408;2024-01-30T14:58:56;13.10;99.90
4356;DHT22;64374;51.482;7.408;2024-01-30T15:01:25;13.00;99.90
4356;DHT22;64374;51.482;7.408;2024-01-30T15:03:53;13.30;99.90
4356;DHT22;64374;51.482;7.408;2024-01-30T15:06:24;13.50;99.90
4356;DHT22;64374;51.482;7.408;2024-01-30T15:08:56;13.70;99.90
4356;DHT22;64374;51.482;7.408;2024-01-30T15:11:24;13.70;99.90
4356;DHT22;64374;51.482;7.408;2024-01-30T15:13:52;13.70;99.90
4356;DHT22;64374;51.482;7.408;2024-01-30T15:16:21;13.30;99.90
4356;DHT22;64374;51.482;7.408;2024-01-30T15:18:50;13.30;99.90
4356;DHT22;64374;51.482;7.408;2024-01-30T15:21:26;13.00;99.90
4356;DHT22;64374;51.482;7.408;2024-01-30T15:23:58;13.10;99.90
4356;DHT22;64374;51.482;7.408;2024-01-30T15:26:26;13.10;99.90
4356;DHT22;64374;51.482;7.408;2024-01-30T15:28:56;13.10;99.90
4356;DHT22;64374;51.482;7.408;2024-01-30T15:31:24;13.00;99.90
4356;DHT22;64374;51.482;7.408;2024-01-30T15:33:55;12.90;99.90
4356;DHT22;64374;51.482;7.408;2024-01-30T15:36:24;12.90;99.90
4356;DHT22;64374;51.482;7.408;2024-01-30T15:38:55;12.90;99.90
4356;DHT22;64374;51.482;7.408;2024-01-30T15:41:27;13.10;99.90
4356;DHT22;64374;51.482;7.408;2024-01-30T15:43:57;13.00;99.90
4356;DHT22;64374;51.482;7.408;2024-01-30T15:46:29;13.20;99.90
4356;DHT22;64374;51.482;7.408;2024-01-30T15:48:59;13.10;99.90
4356;DHT22;64374;51.482;7.408;2024-01-30T15:51:32;13.30;99.90
4356;DHT22;64374;51.482;7.408;2024-01-30T15:54:15;13.30;99.90
4356;DHT22;64374;51.482;7.408;2024-01-30T15:56:46;13.00;99.90
4356;DHT22;64374;51.482;7.408;2024-01-30T15:59:14;12.80;99.90
4356;DHT22;64374;51.482;7.408;2024-01-30T16:01:45;12.50;99.90
4356;DHT22;64374;51.482;7.408;2024-01-30T16:04:16;12.60;99.90
4356;DHT22;64374;51.482;7.408;2024-01-30T16:06:44;12.60;99.90
4356;DHT22;64374;51.482;7.408;2024-01-30T16:09:31;12.50;99.90
4356;DHT22;64374;51.482;7.408;2024-01-30T16:12:01;12.60;99.90